sensor_id;sensor_type;location;lat;lon;timestamp;temperature;humidity
2489;DHT22;1255;48.716;9.124;2023-11-22T00:00:26;7.10;99.90
2489;DHT22;1255;48.716;9.124;2023-11-22T00:02:54;7.10;99.90
2489;DHT22;1255;48.716;9.124;2023-11-22T00:05:21;7.10;99.90
2489;DHT22;1255;48.716;9.124;2023-11-22T00:07:48;7.10;99.90
2489;DHT22;1255;48.716;9.124;2023-11-22T00:10:14;7.10;99.90
2489;DHT22;1255;48.716;9.124;2023-11-22T00:12:41;7.10;99.90
2489;DHT22;1255;48.716;9.124;2023-11-22T04:32:07;3.10;99.90
2489;DHT22;1255;48.716;9.124;2023-11-22T04:34:33;3.10;99.90
2489;DHT22;1255;48.716;9.124;2023-11-22T04:37:00;3.00;99.90
2489;DHT22;1255;48.716;9.124;2023-11-22T04:39:27;3.00;99.90
2489;DHT22;1255;48.716;9.124;2023-11-22T04:41:54;3.10;99.90
2489;DHT22;1255;48.716;9.124;2023-11-22T04:47:06;3.10;99.90
2489;DHT22;1255;48.716;9.124;2023-11-22T04:49:33;3.10;99.90
2489;DHT22;1255;48.716;9.124;2023-11-22T04:52:00;3.10;99.90
2489;DHT22;1255;48.716;9.124;2023-11-22T04:54:27;3.00;99.90
2489;DHT22;1255;48.716;9.124;2023-11-22T04:56:54;3.00;99.90
2489;DHT22;1255;48.716;9.124;2023-11-22T04:59:21;3.10;99.90
2489;DHT22;1255;48.716;9.124;2023-11-22T05:01:47;3.00;99.90
2489;DHT22;1255;48.716;9.124;2023-11-22T05:04:16;3.10;99.90
2489;DHT22;1255;48.716;9.124;2023-11-22T05:06:43;3.10;99.90
2489;DHT22;1255;48.716;9.124;2023-11-22T05:09:11;3.10;99.90
2489;DHT22;1255;48.716;9.124;2023-11-22T05:11:39;3.10;99.90
2489;DHT22;1255;48.716;9.124;2023-11-22T05:14:07;3.10;99.90
2489;DHT22;1255;48.716;9.124;2023-11-22T05:16:34;3.20;99.90
2489;DHT22;1255;48.716;9.124;2023-11-22T05:19:00;3.20;99.90
2489;DHT22;1255;48.716;9.124;2023-11-22T05:21:29;3.20;99.90
2489;DHT22;1255;48.716;9.124;2023-11-22T05:23:55;3.20;99.90
2489;DHT22;1255;48.716;9.124;2023-11-22T05:26:22;3.20;99.90
2489;DHT22;1255;48.716;9.124;2023-11-22T05:28:49;3.20;99.90
2489;DHT22;1255;48.716;9.124;2023-11-22T05:31:15;3.20;99.90
2489;DHT22;1255;48.716;9.124;2023-11-22T05:33:42;3.20;99.90
2489;DHT22;1255;48.716;9.124;2023-11-22T05:36:09;3.30;99.90
2489;DHT22;1255;48.716;9.124;2023-11-22T05:38:38;3.30;99.90
2489;DHT22;1255;48.716;9.124;2023-11-22T05:41:05;3.30;99.90
2489;DHT22;1255;48.716;9.124;2023-11-22T05:43:32;3.20;99.90
2489;DHT22;1255;48.716;9.124;2023-11-22T05:46:02;3.20;99.90
2489;DHT22;1255;48.716;9.124;2023-11-22T05:48:28;3.20;99.90
2489;DHT22;1255;48.716;9.124;2023-11-22T05:50:55;3.20;99.90
2489;DHT22;1255;48.716;9.124;2023-11-22T05:53:22;3.20;99.90
2489;DHT22;1255;48.716;9.124;2023-11-22T05:55:50;3.10;99.90
2489;DHT22;1255;48.716;9.124;2023-11-22T05:58:18;3.10;99.90
2489;DHT22;1255;48.716;9.124;2023-11-22T06:00:46;3.20;99.90
2489;DHT22;1255;48.716;9.124;2023-11-22T06:03:13;3.20;99.90
2489;DHT22;1255;48.716;9.124;2023-11-22T06:05:40;3.10;99.90
2489;DHT22;1255;48.716;9.124;2023-11-22T06:08:07;3.10;99.90
2489;DHT22;1255;48.716;9.124;2023-11-22T06:10:34;3.10;99.90
2489;DHT22;1255;48.716;9.124;2023-11-22T06:13:02;3.00;99.90
2489;DHT22;1255;48.716;9.124;2023-11-22T06:15:29;3.00;99.90
2489;DHT22;1255;48.716;9.124;2023-11-22T06:17:56;3.00;99.90
2489;DHT22;1255;48.716;9.124;2023-11-22T06:20:22;3.10;99.90
2489;DHT22;1255;48.716;9.124;2023-11-22T06:22:52;3.00;99.90
2489;DHT22;1255;48.716;9.124;2023-11-22T06:25:18;3.10;99.90
2489;DHT22;1255;48.716;9.124;2023-11-22T06:27:45;3.00;99.90
2489;DHT22;1255;48.716;9.124;2023-11-22T06:30:13;3.10;99.90
2489;DHT22;1255;48.716;9.124;2023-11-22T06:32:40;3.10;99.90
2489;DHT22;1255;48.716;9.124;2023-11-22T06:35:08;3.10;99.90
2489;DHT22;1255;48.716;9.124;2023-11-22T06:37:36;3.10;99.90
2489;DHT22;1255;48.716;9.124;2023-11-22T06:40:03;3.10;99.90
2489;DHT22;1255;48.716;9.124;2023-11-22T06:42:30;3.10;99.90
2489;DHT22;1255;48.716;9.124;2023-11-22T06:44:59;3.10;99.90
2489;DHT22;1255;48.716;9.124;2023-11-22T06:47:27;3.10;99.90
2489;DHT22;1255;48.716;9.124;2023-11-22T06:49:54;3.10;99.90
2489;DHT22;1255;48.716;9.124;2023-11-22T06:52:20;3.00;99.90
2489;DHT22;1255;48.716;9.124;2023-11-22T06:54:47;3.00;99.90
2489;DHT22;1255;48.716;9.124;2023-11-22T06:57:14;3.00;99.90
2489;DHT22;1255;48.716;9.124;2023-11-22T06:59:41;3.00;99.90
2489;DHT22;1255;48.716;9.124;2023-11-22T07:02:08;3.10;99.90
2489;DHT22;1255;48.716;9.124;2023-11-22T07:04:36;3.10;99.90
2489;DHT22;1255;48.716;9.124;2023-11-22T07:07:03;3.10;99.90
2489;DHT22;1255;48.716;9.124;2023-11-22T07:09:30;3.10;99.90
2489;DHT22;1255;48.716;9.124;2023-11-22T07:11:58;3.00;99.90
2489;DHT22;1255;48.716;9.124;2023-11-22T07:14:25;3.00;99.90
2489;DHT22;1255;48.716;9.124;2023-11-22T07:16:52;2.90;99.90
2489;DHT22;1255;48.716;9.124;2023-11-22T07:19:19;2.90;99.90
2489;DHT22;1255;48.716;9.124;2023-11-22T07:21:47;2.80;99.90
2489;DHT22;1255;48.716;9.124;2023-11-22T07:24:13;2.80;99.90
2489;DHT22;1255;48.716;9.124;2023-11-22T07:26:41;2.80;99.90
2489;DHT22;1255;48.716;9.124;2023-11-22T07:29:08;2.80;99.90
2489;DHT22;1255;48.716;9.124;2023-11-22T07:31:37;2.70;99.90
2489;DHT22;1255;48.716;9.124;2023-11-22T07:34:04;2.60;99.90
2489;DHT22;1255;48.716;9.124;2023-11-22T07:36:31;2.60;99.90
2489;DHT22;1255;48.716;9.124;2023-11-22T07:38:59;2.60;99.90
2489;DHT22;1255;48.716;9.124;2023-11-22T07:41:28;2.60;99.90
2489;DHT22;1255;48.716;9.124;2023-11-22T07:43:56;2.60;99.90
2489;DHT22;1255;48.716;9.124;2023-11-22T07:46:23;2.50;99.90
2489;DHT22;1255;48.716;9.124;2023-11-22T07:48:51;2.50;99.90
2489;DHT22;1255;48.716;9.124;2023-11-22T07:51:17;2.50;99.90
2489;DHT22;1255;48.716;9.124;2023-11-22T07:53:44;2.50;99.90
2489;DHT22;1255;48.716;9.124;2023-11-22T07:56:12;2.50;99.90
2489;DHT22;1255;48.716;9.124;2023-11-22T07:58:39;2.40;99.90
2489;DHT22;1255;48.716;9.124;2023-11-22T08:01:06;2.30;99.90
2489;DHT22;1255;48.716;9.124;2023-11-22T08:03:39;2.40;99.90
2489;DHT22;1255;48.716;9.124;2023-11-22T08:06:09;2.40;99.90
2489;DHT22;1255;48.716;9.124;2023-11-22T08:08:36;2.40;99.90
2489;DHT22;1255;48.716;9.124;2023-11-22T08:11:05;2.30;99.90
2489;DHT22;1255;48.716;9.124;2023-11-22T08:13:41;2.30;99.90
2489;DHT22;1255;48.716;9.124;2023-11-22T08:16:10;2.30;99.90
2489;DHT22;1255;48.716;9.124;2023-11-22T08:18:38;2.30;99.90
2489;DHT22;1255;48.716;9.124;2023-11-22T08:21:06;2.30;99.90
2489;DHT22;1255;48.716;9.124;2023-11-22T08:23:33;2.20;99.90
2489;DHT22;1255;48.716;9.124;2023-11-22T08:26:00;2.20;99.90
2489;DHT22;1255;48.716;9.124;2023-11-22T08:28:29;2.30;99.90
2489;DHT22;1255;48.716;9.124;2023-11-22T08:30:57;2.30;99.90
2489;DHT22;1255;48.716;9.124;2023-11-22T08:33:23;2.30;99.90
2489;DHT22;1255;48.716;9.124;2023-11-22T08:35:50;2.30;99.90
2489;DHT22;1255;48.716;9.124;2023-11-22T08:38:23;2.30;99.90
2489;DHT22;1255;48.716;9.124;2023-11-22T08:40:50;2.30;99.90
2489;DHT22;1255;48.716;9.124;2023-11-22T08:43:17;2.30;99.90
2489;DHT22;1255;48.716;9.124;2023-11-22T08:45:48;2.30;99.90
2489;DHT22;1255;48.716;9.124;2023-11-22T08:48:16;2.30;99.90
2489;DHT22;1255;48.716;9.124;2023-11-22T08:50:43;2.30;99.90
2489;DHT22;1255;48.716;9.124;2023-11-22T08:53:10;2.30;99.90
2489;DHT22;1255;48.716;9.124;2023-11-22T08:55:37;2.30;99.90
2489;DHT22;1255;48.716;9.124;2023-11-22T08:58:04;2.40;99.90
2489;DHT22;1255;48.716;9.124;2023-11-22T09:00:33;2.40;99.90
2489;DHT22;1255;48.716;9.124;2023-11-22T09:03:01;2.40;99.90
2489;DHT22;1255;48.716;9.124;2023-11-22T09:05:30;2.50;99.90
2489;DHT22;1255;48.716;9.124;2023-11-22T09:07:56;2.50;99.90
2489;DHT22;1255;48.716;9.124;2023-11-22T09:10:24;2.50;99.90
2489;DHT22;1255;48.716;9.124;2023-11-22T09:12:52;2.50;99.90
2489;DHT22;1255;48.716;9.124;2023-11-22T09:15:19;2.50;99.90
2489;DHT22;1255;48.716;9.124;2023-11-22T09:17:52;2.50;99.90
2489;DHT22;1255;48.716;9.124;2023-11-22T09:20:19;2.50;99.90
2489;DHT22;1255;48.716;9.124;2023-11-22T09:22:49;2.50;99.90
2489;DHT22;1255;48.716;9.124;2023-11-22T09:25:16;2.50;99.90
2489;DHT22;1255;48.716;9.124;2023-11-22T09:27:45;2.50;99.90
2489;DHT22;1255;48.716;9.124;2023-11-22T09:30:13;2.50;99.90
2489;DHT22;1255;48.716;9.124;2023-11-22T09:32:45;2.60;99.90
2489;DHT22;1255;48.716;9.124;2023-11-22T09:35:12;2.60;99.90
2489;DHT22;1255;48.716;9.124;2023-11-22T09:37:40;2.60;99.90
2489;DHT22;1255;48.716;9.124;2023-11-22T09:40:11;2.60;99.90
2489;DHT22;1255;48.716;9.124;2023-11-22T09:42:39;2.60;99.90
2489;DHT22;1255;48.716;9.124;2023-11-22T09:45:07;2.60;99.90
2489;DHT22;1255;48.716;9.124;2023-11-22T09:47:34;2.60;99.90
2489;DHT22;1255;48.716;9.124;2023-11-22T09:50:02;2.60;99.90
2489;DHT22;1255;48.716;9.124;2023-11-22T09:52:33;2.60;99.90
2489;DHT22;1255;48.716;9.124;2023-11-22T09:55:02;2.60;99.90
2489;DHT22;1255;48.716;9.124;2023-11-22T09:57:32;2.60;99.90
2489;DHT22;1255;48.716;9.124;2023-11-22T10:00:01;2.60;99.90
2489;DHT22;1255;48.716;9.124;2023-11-22T10:02:28;2.60;99.90
2489;DHT22;1255;48.716;9.124;2023-11-22T10:04:55;2.70;99.90
2489;DHT22;1255;48.716;9.124;2023-11-22T10:07:22;2.80;99.90
2489;DHT22;1255;48.716;9.124;2023-11-22T10:09:49;2.80;99.90
2489;DHT22;1255;48.716;9.124;2023-11-22T10:12:19;2.80;99.90
2489;DHT22;1255;48.716;9.124;2023-11-22T10:14:48;2.90;99.90
2489;DHT22;1255;48.716;9.124;2023-11-22T10:17:15;2.90;99.90
2489;DHT22;1255;48.716;9.124;2023-11-22T10:19:42;2.90;99.90
2489;DHT22;1255;48.716;9.124;2023-11-22T10:22:09;2.90;99.90
2489;DHT22;1255;48.716;9.124;2023-11-22T10:24:36;2.80;99.90
2489;DHT22;1255;48.716;9.124;2023-11-22T10:27:03;2.90;99.90
2489;DHT22;1255;48.716;9.124;2023-11-22T10:29:31;2.90;99.90
2489;DHT22;1255;48.716;9.124;2023-11-22T10:32:00;2.90;99.90
2489;DHT22;1255;48.716;9.124;2023-11-22T10:34:29;2.90;99.90
2489;DHT22;1255;48.716;9.124;2023-11-22T10:36:56;2.90;99.90
2489;DHT22;1255;48.716;9.124;2023-11-22T10:39:22;2.90;99.90
2489;DHT22;1255;48.716;9.124;2023-11-22T10:41:51;3.00;99.90
2489;DHT22;1255;48.716;9.124;2023-11-22T10:44:19;3.00;99.90
2489;DHT22;1255;48.716;9.124;2023-11-22T10:46:47;3.00;99.90
2489;DHT22;1255;48.716;9.124;2023-11-22T10:49:15;3.10;99.90
2489;DHT22;1255;48.716;9.124;2023-11-22T10:51:44;3.10;99.90
2489;DHT22;1255;48.716;9.124;2023-11-22T10:54:14;3.20;99.90
2489;DHT22;1255;48.716;9.124;2023-11-22T10:56:46;3.20;99.90
2489;DHT22;1255;48.716;9.124;2023-11-22T10:59:13;3.20;99.90
2489;DHT22;1255;48.716;9.124;2023-11-22T11:01:44;3.20;99.90
2489;DHT22;1255;48.716;9.124;2023-11-22T11:04:19;3.20;99.90
2489;DHT22;1255;48.716;9.124;2023-11-22T11:06:51;3.20;99.90
2489;DHT22;1255;48.716;9.124;2023-11-22T11:09:22;3.20;99.90
2489;DHT22;1255;48.716;9.124;2023-11-22T11:11:52;3.30;99.90
2489;DHT22;1255;48.716;9.124;2023-11-22T11:14:19;3.30;99.90
2489;DHT22;1255;48.716;9.124;2023-11-22T11:16:46;3.30;99.90
2489;DHT22;1255;48.716;9.124;2023-11-22T11:19:16;3.40;99.90
2489;DHT22;1255;48.716;9.124;2023-11-22T11:21:44;3.50;99.90
2489;DHT22;1255;48.716;9.124;2023-11-22T11:24:11;3.50;99.90
2489;DHT22;1255;48.716;9.124;2023-11-22T11:26:38;3.50;99.90
2489;DHT22;1255;48.716;9.124;2023-11-22T11:29:05;3.60;99.90
2489;DHT22;1255;48.716;9.124;2023-11-22T11:31:38;3.50;99.90
2489;DHT22;1255;48.716;9.124;2023-11-22T11:34:07;3.50;99.90
2489;DHT22;1255;48.716;9.124;2023-11-22T11:36:37;3.50;99.90
2489;DHT22;1255;48.716;9.124;2023-11-22T11:39:06;3.40;99.90
2489;DHT22;1255;48.716;9.124;2023-11-22T11:41:35;3.50;99.90
2489;DHT22;1255;48.716;9.124;2023-11-22T11:44:03;3.50;99.90
2489;DHT22;1255;48.716;9.124;2023-11-22T11:46:30;3.40;99.90
2489;DHT22;1255;48.716;9.124;2023-11-22T11:48:58;3.50;99.90
2489;DHT22;1255;48.716;9.124;2023-11-22T11:51:27;3.50;99.90
2489;DHT22;1255;48.716;9.124;2023-11-22T11:53:55;3.50;99.90
2489;DHT22;1255;48.716;9.124;2023-11-22T11:56:22;3.50;99.90
2489;DHT22;1255;48.716;9.124;2023-11-22T11:58:51;3.40;99.90
2489;DHT22;1255;48.716;9.124;2023-11-22T12:01:19;3.40;99.90
2489;DHT22;1255;48.716;9.124;2023-11-22T12:03:47;3.30;99.90
2489;DHT22;1255;48.716;9.124;2023-11-22T12:06:15;3.30;99.90
2489;DHT22;1255;48.716;9.124;2023-11-22T12:08:42;3.30;99.90
2489;DHT22;1255;48.716;9.124;2023-11-22T12:11:10;3.30;99.90
2489;DHT22;1255;48.716;9.124;2023-11-22T12:13:37;3.30;99.90
2489;DHT22;1255;48.716;9.124;2023-11-22T12:16:05;3.20;99.90
2489;DHT22;1255;48.716;9.124;2023-11-22T12:18:39;3.20;99.90
2489;DHT22;1255;48.716;9.124;2023-11-22T12:21:06;3.30;99.90
2489;DHT22;1255;48.716;9.124;2023-11-22T12:23:33;3.20;99.90
2489;DHT22;1255;48.716;9.124;2023-11-22T12:26:02;3.20;99.90
2489;DHT22;1255;48.716;9.124;2023-11-22T12:28:30;3.20;99.90
2489;DHT22;1255;48.716;9.124;2023-11-22T12:31:06;3.20;99.90
2489;DHT22;1255;48.716;9.124;2023-11-22T12:33:35;3.10;99.90
2489;DHT22;1255;48.716;9.124;2023-11-22T12:36:02;3.10;99.90
2489;DHT22;1255;48.716;9.124;2023-11-22T12:38:29;3.00;99.90
2489;DHT22;1255;48.716;9.124;2023-11-22T12:40:57;3.00;99.90
2489;DHT22;1255;48.716;9.124;2023-11-22T12:43:24;2.90;99.90
2489;DHT22;1255;48.716;9.124;2023-11-22T12:46:00;2.90;99.90
2489;DHT22;1255;48.716;9.124;2023-11-22T12:48:27;2.90;99.90
2489;DHT22;1255;48.716;9.124;2023-11-22T12:50:55;2.90;99.90
2489;DHT22;1255;48.716;9.124;2023-11-22T12:53:23;2.90;99.90
2489;DHT22;1255;48.716;9.124;2023-11-22T12:55:52;2.90;99.90
2489;DHT22;1255;48.716;9.124;2023-11-22T12:58:22;2.90;99.90
2489;DHT22;1255;48.716;9.124;2023-11-22T13:00:50;2.90;99.90
2489;DHT22;1255;48.716;9.124;2023-11-22T13:03:21;2.90;99.90
2489;DHT22;1255;48.716;9.124;2023-11-22T13:05:47;2.90;99.90
2489;DHT22;1255;48.716;9.124;2023-11-22T13:08:18;2.80;99.90
2489;DHT22;1255;48.716;9.124;2023-11-22T13:10:46;2.80;99.90
2489;DHT22;1255;48.716;9.124;2023-11-22T13:13:16;2.80;99.90
2489;DHT22;1255;48.716;9.124;2023-11-22T13:15:42;2.70;99.90
2489;DHT22;1255;48.716;9.124;2023-11-22T13:18:10;2.70;99.90
2489;DHT22;1255;48.716;9.124;2023-11-22T13:20:38;2.60;99.90
2489;DHT22;1255;48.716;9.124;2023-11-22T13:23:06;2.60;99.90
2489;DHT22;1255;48.716;9.124;2023-11-22T13:25:33;2.60;99.90
2489;DHT22;1255;48.716;9.124;2023-11-22T13:28:00;2.60;99.90
2489;DHT22;1255;48.716;9.124;2023-11-22T13:30:27;2.50;99.90
2489;DHT22;1255;48.716;9.124;2023-11-22T13:32:55;2.50;99.90
2489;DHT22;1255;48.716;9.124;2023-11-22T13:35:23;2.50;99.90
2489;DHT22;1255;48.716;9.124;2023-11-22T13:37:51;2.60;99.90
2489;DHT22;1255;48.716;9.124;2023-11-22T13:40:19;2.60;99.90
2489;DHT22;1255;48.716;9.124;2023-11-22T13:42:49;2.60;99.90
2489;DHT22;1255;48.716;9.124;2023-11-22T13:45:19;2.60;99.90
2489;DHT22;1255;48.716;9.124;2023-11-22T13:47:47;2.60;99.90
2489;DHT22;1255;48.716;9.124;2023-11-22T13:50:14;2.60;99.90
2489;DHT22;1255;48.716;9.124;2023-11-22T13:52:44;2.60;99.90
2489;DHT22;1255;48.716;9.124;2023-11-22T13:55:15;2.60;99.90
2489;DHT22;1255;48.716;9.124;2023-11-22T13:57:47;2.70;99.90
2489;DHT22;1255;48.716;9.124;2023-11-22T14:00:15;2.60;99.90
2489;DHT22;1255;48.716;9.124;2023-11-22T14:02:45;2.70;99.90
2489;DHT22;1255;48.716;9.124;2023-11-22T14:05:13;2.70;99.90
2489;DHT22;1255;48.716;9.124;2023-11-22T14:07:41;2.70;99.90
2489;DHT22;1255;48.716;9.124;2023-11-22T14:10:09;2.70;99.90
2489;DHT22;1255;48.716;9.124;2023-11-22T14:12:38;2.70;99.90
2489;DHT22;1255;48.716;9.124;2023-11-22T14:15:06;2.70;99.90
2489;DHT22;1255;48.716;9.124;2023-11-22T14:17:34;2.70;99.90
2489;DHT22;1255;48.716;9.124;2023-11-22T14:20:03;2.70;99.90
2489;DHT22;1255;48.716;9.124;2023-11-22T14:22:31;2.70;99.90
2489;DHT22;1255;48.716;9.124;2023-11-22T14:24:58;2.70;99.90
2489;DHT22;1255;48.716;9.124;2023-11-22T14:27:29;2.70;99.90
2489;DHT22;1255;48.716;9.124;2023-11-22T14:29:58;2.70;99.90
2489;DHT22;1255;48.716;9.124;2023-11-22T14:32:29;2.70;99.90
2489;DHT22;1255;48.716;9.124;2023-11-22T14:34:56;2.70;99.90
2489;DHT22;1255;48.716;9.124;2023-11-22T14:37:23;2.70;99.90
2489;DHT22;1255;48.716;9.124;2023-11-22T14:39:51;2.70;99.90
2489;DHT22;1255;48.716;9.124;2023-11-22T14:42:19;2.70;99.90
2489;DHT22;1255;48.716;9.124;2023-11-22T14:44:48;2.70;99.90
2489;DHT22;1255;48.716;9.124;2023-11-22T14:47:16;2.70;99.90
2489;DHT22;1255;48.716;9.124;2023-11-22T14:49:48;2.70;99.90
2489;DHT22;1255;48.716;9.124;2023-11-22T14:52:15;2.70;99.90
2489;DHT22;1255;48.716;9.124;2023-11-22T14:54:42;2.70;99.90
2489;DHT22;1255;48.716;9.124;2023-11-22T14:57:10;2.60;99.90
2489;DHT22;1255;48.716;9.124;2023-11-22T14:59:38;2.60;99.90
2489;DHT22;1255;48.716;9.124;2023-11-22T15:02:05;2.60;99.90
2489;DHT22;1255;48.716;9.124;2023-11-22T15:04:36;2.50;99.90
2489;DHT22;1255;48.716;9.124;2023-11-22T15:07:03;2.60;99.90
2489;DHT22;1255;48.716;9.124;2023-11-22T15:09:30;2.60;99.90
2489;DHT22;1255;48.716;9.124;2023-11-22T15:11:58;2.60;99.90
2489;DHT22;1255;48.716;9.124;2023-11-22T15:14:25;2.60;99.90
2489;DHT22;1255;48.716;9.124;2023-11-22T15:16:51;2.60;99.90
2489;DHT22;1255;48.716;9.124;2023-11-22T15:19:20;2.60;99.90
2489;DHT22;1255;48.716;9.124;2023-11-22T15:21:51;2.60;99.90
2489;DHT22;1255;48.716;9.124;2023-11-22T15:24:18;2.60;99.90
2489;DHT22;1255;48.716;9.124;2023-11-22T15:26:45;2.50;99.90
2489;DHT22;1255;48.716;9.124;2023-11-22T15:29:12;2.60;99.90
2489;DHT22;1255;48.716;9.124;2023-11-22T15:31:41;2.60;99.90
2489;DHT22;1255;48.716;9.124;2023-11-22T15:34:09;2.50;99.90
2489;DHT22;1255;48.716;9.124;2023-11-22T15:36:36;2.50;99.90
2489;DHT22;1255;48.716;9.124;2023-11-22T15:39:04;2.50;99.90
2489;DHT22;1255;48.716;9.124;2023-11-22T15:41:37;2.50;99.90
2489;DHT22;1255;48.716;9.124;2023-11-22T15:44:04;2.50;99.90
2489;DHT22;1255;48.716;9.124;2023-11-22T15:46:31;2.50;99.90
2489;DHT22;1255;48.716;9.124;2023-11-22T15:48:58;2.50;99.90
2489;DHT22;1255;48.716;9.124;2023-11-22T15:51:24;2.50;99.90
2489;DHT22;1255;48.716;9.124;2023-11-22T15:53:51;2.50;99.90
2489;DHT22;1255;48.716;9.124;2023-11-22T15:56:20;2.40;99.90
2489;DHT22;1255;48.716;9.124;2023-11-22T15:58:46;2.40;99.90
2489;DHT22;1255;48.716;9.124;2023-11-22T16:01:15;2.40;99.90
2489;DHT22;1255;48.716;9.124;2023-11-22T16:03:42;2.40;99.90
2489;DHT22;1255;48.716;9.124;2023-11-22T16:06:09;2.40;99.90
2489;DHT22;1255;48.716;9.124;2023-11-22T16:08:38;2.40;99.90
2489;DHT22;1255;48.716;9.124;2023-11-22T16:11:05;2.30;99.90
2489;DHT22;1255;48.716;9.124;2023-11-22T16:13:35;2.30;99.90
2489;DHT22;1255;48.716;9.124;2023-11-22T16:16:02;2.30;99.90
2489;DHT22;1255;48.716;9.124;2023-11-22T16:18:29;2.30;99.90
2489;DHT22;1255;48.716;9.124;2023-11-22T16:20:57;2.30;99.90
2489;DHT22;1255;48.716;9.124;2023-11-22T16:23:24;2.30;99.90
2489;DHT22;1255;48.716;9.124;2023-11-22T16:25:51;2.30;99.90
2489;DHT22;1255;48.716;9.124;2023-11-22T16:28:18;2.30;99.90
2489;DHT22;1255;48.716;9.124;2023-11-22T16:30:46;2.20;99.90
2489;DHT22;1255;48.716;9.124;2023-11-22T16:33:13;2.20;99.90
2489;DHT22;1255;48.716;9.124;2023-11-22T16:35:41;2.20;99.90
2489;DHT22;1255;48.716;9.124;2023-11-22T16:38:08;2.20;99.90
2489;DHT22;1255;48.716;9.124;2023-11-22T16:40:35;2.20;99.90
2489;DHT22;1255;48.716;9.124;2023-11-22T16:43:02;2.10;99.90
2489;DHT22;1255;48.716;9.124;2023-11-22T16:45:30;2.10;99.90
2489;DHT22;1255;48.716;9.124;2023-11-22T16:47:59;2.10;99.90
2489;DHT22;1255;48.716;9.124;2023-11-22T16:50:26;2.20;99.90
2489;DHT22;1255;48.716;9.124;2023-11-22T16:52:55;2.20;99.90
2489;DHT22;1255;48.716;9.124;2023-11-22T16:55:22;2.20;99.90
2489;DHT22;1255;48.716;9.124;2023-11-22T16:57:50;2.20;99.90
2489;DHT22;1255;48.716;9.124;2023-11-22T17:00:18;2.20;99.90
2489;DHT22;1255;48.716;9.124;2023-11-22T17:02:47;2.20;99.90
2489;DHT22;1255;48.716;9.124;2023-11-22T17:05:18;2.20;99.90
2489;DHT22;1255;48.716;9.124;2023-11-22T17:07:46;2.20;99.90
2489;DHT22;1255;48.716;9.124;2023-11-22T17:10:13;2.20;99.90
2489;DHT22;1255;48.716;9.124;2023-11-22T17:12:41;2.20;99.90
2489;DHT22;1255;48.716;9.124;2023-11-22T17:15:09;2.20;99.90
2489;DHT22;1255;48.716;9.124;2023-11-22T17:17:37;2.20;99.90
2489;DHT22;1255;48.716;9.124;2023-11-22T17:20:06;2.20;99.90
2489;DHT22;1255;48.716;9.124;2023-11-22T17:22:37;2.10;99.90
2489;DHT22;1255;48.716;9.124;2023-11-22T17:25:05;2.10;99.90
2489;DHT22;1255;48.716;9.124;2023-11-22T17:27:37;2.10;99.90
2489;DHT22;1255;48.716;9.124;2023-11-22T17:30:06;2.20;99.90
2489;DHT22;1255;48.716;9.124;2023-11-22T17:32:34;2.10;99.90
2489;DHT22;1255;48.716;9.124;2023-11-22T17:35:02;2.20;99.90
2489;DHT22;1255;48.716;9.124;2023-11-22T17:37:30;2.10;99.90
2489;DHT22;1255;48.716;9.124;2023-11-22T17:39:59;2.20;99.90
2489;DHT22;1255;48.716;9.124;2023-11-22T17:42:26;2.20;99.90
2489;DHT22;1255;48.716;9.124;2023-11-22T17:44:53;2.20;99.90
2489;DHT22;1255;48.716;9.124;2023-11-22T17:47:21;2.20;99.90
2489;DHT22;1255;48.716;9.124;2023-11-22T17:49:49;2.20;99.90
2489;DHT22;1255;48.716;9.124;2023-11-22T17:52:16;2.10;99.90
2489;DHT22;1255;48.716;9.124;2023-11-22T17:54:44;2.20;99.90
2489;DHT22;1255;48.716;9.124;2023-11-22T17:57:13;2.20;99.90
2489;DHT22;1255;48.716;9.124;2023-11-22T17:59:42;2.20;99.90
2489;DHT22;1255;48.716;9.124;2023-11-22T18:02:10;2.10;99.90
2489;DHT22;1255;48.716;9.124;2023-11-22T18:04:37;2.10;99.90
2489;DHT22;1255;48.716;9.124;2023-11-22T18:07:05;2.10;99.90
2489;DHT22;1255;48.716;9.124;2023-11-22T18:09:32;2.10;99.90
2489;DHT22;1255;48.716;9.124;2023-11-22T18:12:00;2.10;99.90
2489;DHT22;1255;48.716;9.124;2023-11-22T18:14:34;2.10;99.90
2489;DHT22;1255;48.716;9.124;2023-11-22T18:17:02;2.10;99.90
2489;DHT22;1255;48.716;9.124;2023-11-22T18:19:30;2.10;99.90
2489;DHT22;1255;48.716;9.124;2023-11-22T18:21:58;2.10;99.90
2489;DHT22;1255;48.716;9.124;2023-11-22T18:24:25;2.10;99.90
2489;DHT22;1255;48.716;9.124;2023-11-22T18:26:54;2.10;99.90
2489;DHT22;1255;48.716;9.124;2023-11-22T18:29:23;2.10;99.90
2489;DHT22;1255;48.716;9.124;2023-11-22T18:31:54;2.10;99.90
2489;DHT22;1255;48.716;9.124;2023-11-22T18:34:24;2.10;99.90
2489;DHT22;1255;48.716;9.124;2023-11-22T18:36:56;2.10;99.90
2489;DHT22;1255;48.716;9.124;2023-11-22T18:39:24;2.10;99.90
2489;DHT22;1255;48.716;9.124;2023-11-22T18:41:51;2.10;99.90
2489;DHT22;1255;48.716;9.124;2023-11-22T18:44:18;2.10;99.90
2489;DHT22;1255;48.716;9.124;2023-11-22T18:46:46;2.00;99.90
2489;DHT22;1255;48.716;9.124;2023-11-22T18:49:15;2.10;99.90
2489;DHT22;1255;48.716;9.124;2023-11-22T18:51:45;2.10;99.90
2489;DHT22;1255;48.716;9.124;2023-11-22T18:54:12;2.10;99.90
2489;DHT22;1255;48.716;9.124;2023-11-22T18:56:40;2.10;99.90
2489;DHT22;1255;48.716;9.124;2023-11-22T18:59:09;2.10;99.90
2489;DHT22;1255;48.716;9.124;2023-11-22T19:01:37;2.10;99.90
2489;DHT22;1255;48.716;9.124;2023-11-22T19:04:05;2.00;99.90
2489;DHT22;1255;48.716;9.124;2023-11-22T19:06:36;1.90;99.90
2489;DHT22;1255;48.716;9.124;2023-11-22T19:09:03;1.80;99.90
2489;DHT22;1255;48.716;9.124;2023-11-22T19:11:34;1.80;99.90
2489;DHT22;1255;48.716;9.124;2023-11-22T19:14:01;1.70;99.90
2489;DHT22;1255;48.716;9.124;2023-11-22T19:16:28;1.70;99.90
2489;DHT22;1255;48.716;9.124;2023-11-22T19:18:55;1.70;99.90
2489;DHT22;1255;48.716;9.124;2023-11-22T19:21:22;1.80;99.90
2489;DHT22;1255;48.716;9.124;2023-11-22T19:23:50;1.80;99.90
2489;DHT22;1255;48.716;9.124;2023-11-22T19:26:22;1.90;99.90
2489;DHT22;1255;48.716;9.124;2023-11-22T19:28:49;1.90;99.90
2489;DHT22;1255;48.716;9.124;2023-11-22T19:31:16;1.90;99.90
2489;DHT22;1255;48.716;9.124;2023-11-22T19:33:44;1.90;99.90
2489;DHT22;1255;48.716;9.124;2023-11-22T19:36:19;1.90;99.90
2489;DHT22;1255;48.716;9.124;2023-11-22T19:38:46;1.90;99.90
2489;DHT22;1255;48.716;9.124;2023-11-22T19:41:14;1.90;99.90
2489;DHT22;1255;48.716;9.124;2023-11-22T19:43:41;1.90;99.90
2489;DHT22;1255;48.716;9.124;2023-11-22T19:46:08;1.90;99.90
2489;DHT22;1255;48.716;9.124;2023-11-22T19:48:35;1.90;99.90
2489;DHT22;1255;48.716;9.124;2023-11-22T19:51:02;1.90;99.90
2489;DHT22;1255;48.716;9.124;2023-11-22T19:53:29;1.90;99.90
2489;DHT22;1255;48.716;9.124;2023-11-22T19:55:56;1.90;99.90
2489;DHT22;1255;48.716;9.124;2023-11-22T19:58:25;1.90;99.90
2489;DHT22;1255;48.716;9.124;2023-11-22T20:00:52;1.90;99.90
2489;DHT22;1255;48.716;9.124;2023-11-22T20:03:19;1.90;99.90
2489;DHT22;1255;48.716;9.124;2023-11-22T20:05:46;2.00;99.90
2489;DHT22;1255;48.716;9.124;2023-11-22T20:08:12;2.00;99.90
2489;DHT22;1255;48.716;9.124;2023-11-22T20:10:40;2.00;99.90
2489;DHT22;1255;48.716;9.124;2023-11-22T20:13:08;2.00;99.90
2489;DHT22;1255;48.716;9.124;2023-11-22T20:15:36;1.90;99.90
2489;DHT22;1255;48.716;9.124;2023-11-22T20:18:02;2.00;99.90
2489;DHT22;1255;48.716;9.124;2023-11-22T20:20:29;2.00;99.90
2489;DHT22;1255;48.716;9.124;2023-11-22T20:22:56;2.00;99.90
2489;DHT22;1255;48.716;9.124;2023-11-22T20:25:22;1.90;99.90
2489;DHT22;1255;48.716;9.124;2023-11-22T20:27:50;1.80;99.90
2489;DHT22;1255;48.716;9.124;2023-11-22T20:30:17;1.70;99.90
2489;DHT22;1255;48.716;9.124;2023-11-22T20:32:45;1.70;99.90
2489;DHT22;1255;48.716;9.124;2023-11-22T20:35:11;1.70;99.90
2489;DHT22;1255;48.716;9.124;2023-11-22T20:37:39;1.60;99.90
2489;DHT22;1255;48.716;9.124;2023-11-22T20:40:06;1.50;99.90